الصفحة الرئيسية
METAR-TAF:

METAR-TAF

مطار :

مطار تيميمون

تيميمون, الجزائر

دائرة عرض: 29-15N, خط طول: 000-17E, ارتفاع: 312 متر

مراقبة الطقس الحالي

تاريخ ووقت الإصدار 1ساعة و 7 دقيقة قبل الساعة 21:00UTC
ريح 20 عقدة من الشرق/الشمال الشرقي
درجة الحرارة 33°درجة مئوية
الرطوبة 17%
ضغط 1015 hPa
الرؤية: 5000 متر
هبوب عاصفة رملية منخفضة

METAR: DAUT 252100Z 06020KT 5000 DRSA NSC 33/05 Q1015

زمن: 23:07 (22:07 UTC)

توقعات

تاريخ ووقت الإصدار 2ساعات و 7 دقيقة قبل الساعة 20:00UTC
التوقعات صالحة من25 الساعة 21 UTC إلى 26 الساعة 06 UTC
ريح 18 عقدة من الشمال الشرقي
الرؤية: 6000 متر
غيوم قليلة على ارتفاع 4000 قدم
مؤقت
من 25 الساعة 21 UTC إلى 26 الساعة 03 UTC
الرؤية: 4000 متر
هبوب عاصفة رملية منخفضة
نظرية الاحتمالات 40% :
مؤقت
من 25 الساعة 21 UTC إلى 25 الساعة 24 UTC
ريح 18 عقدة من الشرق/الشمال الشرقي تتزايد حتى 30 عقدة
الرؤية: 2000 متر
غيوم قليلة على ارتفاع 4000 قدم, مزنة ركامية.
هبوب الرمال

TAF: DAUT 252000Z 2521/2606 05018KT 6000 FEW040 TEMPO 2521/2603 4000 DRSA PROB40 TEMPO 2521/2524 06018G30KT 2000 BLSA FEW040CB

أرصاد الطقس والتوقعات من أكثر من 4000 مطار (تقارير الطقس للمطار METAR والتنبؤ بالطقس بالمطارTAF).

المحطات المتاحة هي النقط الصفراء والحمراء على الخريطة.

حرك المؤشر فوق النقطة لمعرفة اسم المحطة.

ثم انقر لمعرفة أرصاد وتوقعات الطقس.

لتغيير الخارطة: اضغط على الأزرار الخضراء مع رمز الصليب الأسود للتكبير. على الزر الأخضر مع شرطة للتصغير، أو على الأسهم الخضراء للخرائط المجاورة.


METAR-TAF: